Terminal Aerodrome Forecast
Issued by NWS

Home | Current Version | Previous Version | Graphics & Text | Print | Product List | Glossary On
Versions: 1 2 3 4 5 6 7 8 9 10 11 12 13 14 15 16 17 18 19 20 21 22
000
FTUS43 KGRB 011100
TAFAUW
TAF
KAUW 011130Z 0112/0212 23008KT P6SM -SN SCT025 BKN050
      TEMPO 0116/0120 BKN020
     FM012100 27011G18KT P6SM SCT025 BKN080
     FM020100 29010G17KT P6SM SCT025
     FM020800 30007KT P6SM SKC=

USA.gov is the U.S. government's official web portal to all federal, state and local government web resources and services.